createdAt,value
2022-10-05T07:11:29.130Z,2.67
2022-10-05T07:14:15.788Z,2.83
2022-10-05T07:17:01.979Z,2.70
2022-10-05T07:19:38.726Z,2.87
2022-10-05T07:22:36.167Z,2.80
2022-10-05T07:25:11.736Z,2.70
2022-10-05T07:27:51.936Z,3.13
2022-10-05T07:30:21.591Z,3.00
2022-10-05T07:32:59.995Z,2.93
2022-10-05T07:36:03.143Z,2.77
2022-10-05T07:38:39.387Z,2.57
2022-10-05T07:41:14.125Z,2.70
2022-10-05T07:44:02.397Z,2.60
2022-10-05T07:46:45.523Z,2.63
2022-10-05T07:49:24.382Z,2.87
2022-10-05T07:51:57.372Z,2.87
2022-10-05T07:54:42.376Z,2.60
2022-10-05T07:57:22.595Z,2.70
2022-10-05T08:00:02.299Z,2.60
2022-10-05T08:02:38.970Z,2.30
2022-10-05T08:05:15.232Z,2.60
2022-10-05T08:07:44.150Z,2.87
2022-10-05T08:10:28.833Z,2.40
2022-10-05T08:13:08.495Z,2.57
2022-10-05T08:15:43.059Z,2.80
2022-10-05T08:18:20.564Z,2.40
2022-10-05T08:20:51.233Z,2.20
2022-10-05T08:23:25.165Z,2.37
2022-10-05T08:26:08.398Z,2.63
2022-10-05T08:28:40.570Z,2.00
2022-10-05T08:31:22.906Z,2.10
2022-10-05T08:33:59.798Z,1.93
2022-10-05T08:36:49.169Z,1.87
2022-10-05T08:39:24.208Z,1.80
2022-10-05T08:42:46.992Z,1.90
2022-10-05T08:45:55.790Z,1.70
2022-10-05T08:49:29.727Z,1.67
2022-10-05T08:52:31.879Z,1.50
2022-10-05T08:55:30.671Z,1.50
2022-10-05T08:58:44.195Z,1.40
2022-10-05T09:01:22.599Z,1.50
2022-10-05T09:04:36.386Z,1.60
2022-10-05T09:07:14.081Z,1.60
2022-10-05T09:10:32.810Z,1.43
2022-10-05T09:13:37.152Z,1.53
2022-10-05T09:16:23.742Z,1.77
2022-10-05T09:19:41.861Z,1.80
2022-10-05T09:22:16.882Z,1.70
2022-10-05T09:24:58.113Z,1.88
2022-10-05T09:27:38.650Z,2.10
2022-10-05T09:30:26.965Z,1.97
2022-10-05T09:33:35.160Z,2.10
2022-10-05T09:36:56.656Z,2.17
2022-10-05T09:40:14.914Z,1.67
2022-10-05T09:43:18.211Z,2.10
2022-10-05T09:46:30.490Z,1.98
2022-10-05T09:49:57.902Z,1.90
2022-10-05T09:52:55.034Z,1.60
2022-10-05T09:56:05.244Z,1.97
2022-10-05T09:59:07.600Z,2.00
2022-10-05T10:02:05.666Z,1.90
2022-10-05T10:05:05.803Z,1.55
2022-10-05T10:08:04.725Z,1.63
2022-10-05T10:11:04.664Z,1.97
2022-10-05T10:14:13.014Z,1.53
2022-10-05T10:17:07.859Z,1.50
2022-10-05T10:20:05.689Z,1.40
2022-10-05T10:23:05.754Z,1.55
2022-10-05T10:26:05.845Z,1.20
2022-10-05T10:29:00.359Z,1.23
2022-10-05T10:31:49.472Z,1.20
2022-10-05T10:35:09.766Z,1.17
2022-10-05T10:38:36.525Z,1.40
2022-10-05T10:42:01.737Z,1.33
2022-10-05T10:45:09.833Z,1.30
2022-10-05T10:47:51.836Z,1.25
2022-10-05T10:50:52.098Z,1.08
2022-10-05T10:54:03.730Z,0.90
2022-10-05T10:56:59.809Z,1.10
2022-10-05T11:00:15.670Z,1.10
2022-10-05T11:03:38.478Z,1.23
2022-10-05T11:06:58.503Z,1.10
2022-10-05T11:09:57.473Z,1.30
2022-10-05T11:13:12.223Z,1.15
2022-10-05T11:16:08.823Z,1.20
2022-10-05T11:19:02.370Z,1.23
2022-10-05T11:21:36.839Z,1.20
2022-10-05T11:24:57.451Z,1.20
2022-10-05T11:27:49.014Z,1.00
2022-10-05T11:31:06.413Z,1.00
2022-10-05T11:34:10.324Z,0.90
2022-10-05T11:37:32.251Z,0.90
2022-10-05T11:40:38.989Z,1.38
2022-10-05T11:43:32.367Z,1.10
2022-10-05T11:46:09.757Z,1.20
2022-10-05T11:49:01.731Z,1.02
2022-10-05T11:51:49.554Z,1.00
2022-10-05T11:55:10.975Z,0.90
2022-10-05T11:57:52.837Z,0.90
2022-10-05T12:00:25.645Z,1.20
2022-10-05T12:03:36.566Z,1.00
2022-10-05T12:06:31.471Z,1.00
2022-10-05T12:09:17.730Z,1.00
2022-10-05T12:12:04.187Z,0.95
2022-10-05T12:14:45.930Z,0.93
2022-10-05T12:17:27.415Z,1.00
2022-10-05T12:20:03.038Z,0.80
2022-10-05T12:22:36.533Z,0.93
2022-10-05T12:25:21.635Z,1.15
2022-10-05T12:27:54.815Z,0.88
2022-10-05T12:30:33.906Z,0.82
2022-10-05T12:33:19.680Z,0.80
2022-10-05T12:35:53.192Z,0.90
2022-10-05T12:38:29.476Z,1.10
2022-10-05T12:41:08.117Z,0.90
2022-10-05T12:43:48.188Z,0.90
2022-10-05T12:46:28.464Z,0.85
2022-10-05T12:49:23.293Z,0.93
2022-10-05T12:51:58.692Z,0.93
2022-10-05T12:54:43.927Z,0.90
2022-10-05T12:57:21.785Z,0.80
2022-10-05T12:59:57.248Z,0.70
2022-10-05T13:02:39.118Z,0.95
2022-10-05T13:05:32.301Z,0.70
2022-10-05T13:08:20.188Z,0.90
2022-10-05T13:10:51.736Z,0.93
2022-10-05T13:13:35.886Z,0.80
2022-10-05T13:16:18.849Z,0.85
2022-10-05T13:19:08.584Z,1.00
2022-10-05T13:21:58.284Z,1.10
2022-10-05T13:24:32.413Z,0.80
2022-10-05T13:27:08.413Z,1.00
2022-10-05T13:29:43.591Z,0.70
2022-10-05T13:32:19.740Z,0.90
2022-10-05T13:34:56.214Z,0.80
2022-10-05T13:37:35.231Z,0.70
2022-10-05T13:40:18.647Z,0.90
2022-10-05T13:42:52.600Z,0.80
2022-10-05T13:45:24.952Z,0.82
2022-10-05T13:48:13.179Z,0.80
2022-10-05T13:50:48.306Z,0.90
2022-10-05T13:53:26.094Z,0.80
2022-10-05T13:56:01.098Z,0.93
2022-10-05T13:58:40.701Z,1.00
2022-10-05T14:01:17.063Z,1.30
2022-10-05T14:04:07.409Z,0.90
2022-10-05T14:06:38.661Z,0.93
2022-10-05T14:09:15.828Z,1.00
2022-10-05T14:12:06.808Z,0.70
2022-10-05T14:14:47.847Z,0.80
2022-10-05T14:17:18.958Z,0.80
2022-10-05T14:19:51.162Z,0.90
2022-10-05T14:22:24.286Z,1.35
2022-10-05T14:24:58.109Z,1.05
2022-10-05T14:27:29.208Z,0.88
2022-10-05T14:30:01.134Z,0.70
2022-10-05T14:32:33.377Z,0.70
2022-10-05T14:35:15.407Z,0.90
2022-10-05T14:37:52.786Z,0.77
2022-10-05T14:40:32.569Z,0.73
2022-10-05T14:43:18.668Z,0.80
2022-10-05T14:45:58.121Z,0.70
2022-10-05T14:48:28.951Z,0.60
2022-10-05T14:50:59.614Z,0.70
2022-10-05T14:53:39.767Z,0.70
2022-10-05T14:56:44.678Z,0.80
2022-10-05T14:59:30.863Z,0.80
2022-10-05T15:02:12.722Z,0.70
2022-10-05T15:04:46.040Z,0.60
2022-10-05T15:07:26.416Z,0.70
2022-10-05T15:10:19.615Z,0.70
2022-10-05T15:12:50.013Z,0.70
2022-10-05T15:15:28.864Z,0.60
2022-10-05T15:18:01.936Z,0.80
2022-10-05T15:20:44.501Z,0.65
2022-10-05T15:23:25.533Z,0.90
2022-10-05T15:26:07.559Z,0.80
2022-10-05T15:28:48.414Z,0.70
2022-10-05T15:31:29.981Z,0.70
2022-10-05T15:34:07.309Z,0.70
2022-10-05T15:36:44.777Z,0.60
2022-10-05T15:39:25.947Z,0.70
2022-10-05T15:42:01.105Z,0.50
2022-10-05T15:44:55.400Z,0.55
2022-10-05T15:47:29.085Z,0.68
2022-10-05T15:50:10.933Z,0.63
2022-10-05T15:52:51.243Z,0.85
2022-10-05T15:55:36.627Z,0.63
2022-10-05T15:58:42.794Z,0.77
2022-10-05T16:01:19.176Z,0.75
2022-10-05T16:03:57.820Z,0.90
2022-10-05T16:07:01.727Z,0.60
2022-10-05T16:09:47.511Z,0.80
2022-10-05T16:12:49.130Z,0.80
2022-10-05T16:15:26.525Z,0.80
2022-10-05T16:18:32.738Z,0.70
2022-10-05T16:21:14.068Z,0.68
2022-10-05T16:24:05.911Z,0.70
2022-10-05T16:26:57.524Z,0.90
2022-10-05T16:29:38.607Z,0.70
2022-10-05T16:32:13.857Z,1.10
2022-10-05T16:35:02.328Z,0.98
2022-10-05T16:37:41.002Z,0.90
2022-10-05T16:40:20.350Z,0.75
2022-10-05T16:43:05.944Z,0.80
2022-10-05T16:46:04.539Z,0.70
2022-10-05T16:48:41.374Z,0.70
2022-10-05T16:51:29.543Z,0.93
2022-10-05T16:54:09.848Z,0.75
2022-10-05T16:56:44.684Z,0.70
2022-10-05T17:00:03.614Z,0.90
2022-10-05T17:02:59.508Z,0.80
2022-10-05T17:05:45.449Z,0.77
2022-10-05T17:08:36.823Z,0.80
2022-10-05T17:11:19.497Z,0.75
2022-10-05T17:14:26.734Z,0.70
2022-10-05T17:17:16.834Z,0.80
2022-10-05T17:19:56.299Z,0.70
2022-10-05T17:22:31.913Z,0.80
2022-10-05T17:25:09.032Z,1.08
2022-10-05T17:27:53.114Z,0.90
2022-10-05T17:30:40.084Z,1.00
2022-10-05T17:33:27.432Z,0.90
2022-10-05T17:36:19.030Z,0.77
2022-10-05T17:38:50.865Z,0.73
2022-10-05T17:41:30.306Z,0.80
2022-10-05T17:44:24.813Z,0.70
2022-10-05T17:46:58.630Z,0.93
2022-10-05T17:50:16.456Z,0.90
2022-10-05T17:53:03.375Z,0.80
2022-10-05T17:56:03.361Z,0.70
2022-10-05T17:59:04.505Z,0.68
2022-10-05T18:01:38.443Z,0.80
2022-10-05T18:04:34.642Z,0.75
2022-10-05T18:07:06.400Z,0.57
2022-10-05T18:09:59.259Z,0.60
2022-10-05T18:12:41.877Z,0.70
2022-10-05T18:15:48.398Z,0.70
2022-10-05T18:18:55.926Z,0.70
2022-10-05T18:22:03.340Z,0.55
2022-10-05T18:25:11.996Z,0.60
2022-10-05T18:28:06.760Z,1.23
2022-10-05T18:30:47.460Z,0.70
2022-10-05T18:33:49.509Z,0.70
2022-10-05T18:36:38.239Z,0.80
2022-10-05T18:39:19.032Z,0.80
2022-10-05T18:41:59.306Z,0.77
2022-10-05T18:44:39.444Z,0.90
2022-10-05T18:47:18.477Z,0.60
2022-10-05T18:50:14.895Z,0.70
2022-10-05T18:52:56.464Z,0.77
2022-10-05T18:55:33.012Z,0.60
2022-10-05T18:58:36.304Z,0.65
2022-10-05T19:01:30.639Z,0.60
2022-10-05T19:04:15.613Z,0.70
2022-10-05T19:06:59.539Z,0.80
2022-10-05T19:09:48.641Z,0.70
2022-10-05T19:12:31.783Z,0.80
2022-10-05T19:15:16.030Z,0.70
2022-10-05T19:18:24.889Z,0.70
2022-10-05T19:21:03.348Z,0.77
2022-10-05T19:23:58.329Z,0.70
2022-10-05T19:26:53.876Z,0.80
2022-10-05T19:29:46.854Z,0.75
2022-10-05T19:32:27.353Z,0.88
2022-10-05T19:35:17.147Z,0.90
2022-10-05T19:38:03.537Z,0.82
2022-10-05T19:40:41.048Z,0.85
2022-10-05T19:43:31.779Z,0.80
2022-10-05T19:46:19.019Z,0.90
2022-10-05T19:48:51.084Z,0.80
2022-10-05T19:51:30.888Z,0.70
2022-10-05T19:54:10.421Z,0.70
2022-10-05T19:56:49.505Z,0.82
2022-10-05T19:59:21.421Z,0.82
2022-10-05T20:02:04.606Z,0.75
2022-10-05T20:04:35.776Z,0.90
2022-10-05T20:07:05.163Z,0.93
2022-10-05T20:09:58.651Z,0.90
2022-10-05T20:12:51.755Z,0.73
2022-10-05T20:15:40.977Z,0.77
2022-10-05T20:18:58.620Z,1.13
2022-10-05T20:21:46.689Z,0.90
2022-10-05T20:24:17.941Z,0.60
2022-10-05T20:27:16.235Z,0.60
2022-10-05T20:29:47.304Z,0.45
2022-10-05T20:32:18.242Z,0.13
2022-10-05T20:34:49.438Z,0.13
2022-10-05T20:37:20.058Z,0.10
2022-10-05T20:39:48.557Z,0.00
2022-10-05T20:42:19.841Z,0.20
2022-10-05T20:44:52.945Z,0.20
2022-10-05T20:47:24.470Z,0.10
2022-10-05T20:49:53.384Z,0.17
2022-10-05T20:52:23.107Z,0.17
2022-10-05T20:54:54.810Z,0.10
2022-10-05T20:57:27.538Z,0.10
2022-10-05T20:59:55.777Z,0.17
2022-10-05T21:02:23.965Z,0.10
2022-10-05T21:05:04.967Z,0.10
2022-10-05T21:07:34.206Z,0.10
2022-10-05T21:10:03.794Z,0.20
2022-10-05T21:12:33.943Z,0.10
2022-10-05T21:15:04.907Z,0.20
2022-10-05T21:17:35.124Z,0.10
2022-10-05T21:20:03.491Z,0.20
2022-10-05T21:22:32.100Z,0.20
2022-10-05T21:25:00.388Z,0.10
2022-10-05T21:27:28.821Z,0.20
2022-10-05T21:29:58.411Z,0.10
2022-10-05T21:32:26.600Z,0.20
2022-10-05T21:34:54.816Z,0.10
2022-10-05T21:37:23.042Z,0.20
2022-10-05T21:39:51.332Z,0.10
2022-10-05T21:42:19.732Z,0.20
2022-10-05T21:44:47.940Z,0.10
2022-10-05T21:47:17.477Z,0.10
2022-10-05T21:49:45.812Z,0.10
2022-10-05T21:52:14.877Z,0.10
2022-10-05T21:54:43.205Z,0.20
2022-10-05T21:57:13.297Z,0.13
2022-10-05T21:59:41.931Z,0.10
2022-10-05T22:02:10.301Z,0.20
2022-10-05T22:04:40.042Z,0.10
2022-10-05T22:07:18.487Z,0.10
2022-10-05T22:09:48.378Z,0.13
2022-10-05T22:12:17.395Z,0.10
2022-10-05T22:14:45.667Z,0.20
2022-10-05T22:17:16.472Z,0.10
2022-10-05T22:19:46.562Z,0.10
2022-10-05T22:22:14.995Z,0.30
2022-10-05T22:24:43.224Z,0.20
2022-10-05T22:27:11.665Z,0.20
2022-10-05T22:29:40.193Z,0.10
2022-10-05T22:32:08.459Z,0.23
2022-10-05T22:34:37.400Z,0.10
2022-10-05T22:37:08.159Z,0.30
2022-10-05T22:39:36.894Z,0.20
2022-10-05T22:42:05.782Z,0.10
2022-10-05T22:44:34.271Z,0.13
2022-10-05T22:47:04.016Z,0.13
2022-10-05T22:49:32.303Z,0.30
2022-10-05T22:52:00.673Z,0.20
2022-10-05T22:54:32.521Z,0.27
2022-10-05T22:57:03.587Z,0.40
2022-10-05T22:59:32.009Z,0.20
2022-10-05T23:02:00.278Z,0.20
2022-10-05T23:04:28.673Z,0.10
2022-10-05T23:06:57.364Z,0.23
2022-10-05T23:09:25.667Z,0.20
2022-10-05T23:11:55.240Z,0.13
2022-10-05T23:14:23.626Z,0.20
2022-10-05T23:16:52.040Z,0.20
2022-10-05T23:19:20.714Z,0.27
2022-10-05T23:21:48.983Z,0.17
2022-10-05T23:24:17.225Z,0.30
2022-10-05T23:26:45.667Z,0.20
2022-10-05T23:29:15.297Z,0.30
2022-10-05T23:31:43.616Z,0.17
2022-10-05T23:34:12.095Z,0.17
2022-10-05T23:36:40.396Z,0.13
2022-10-05T23:39:14.098Z,0.20
2022-10-05T23:41:44.264Z,0.20
2022-10-05T23:44:14.175Z,0.20
2022-10-05T23:46:42.559Z,0.30
2022-10-05T23:49:11.012Z,0.30
2022-10-05T23:51:39.288Z,0.10
2022-10-05T23:54:07.686Z,0.20
2022-10-05T23:56:35.911Z,0.23
2022-10-05T23:59:04.187Z,0.20
